Time;durP1;ratioP1;P1;durP2;ratioP2;P2;SDS_P1;SDS_P2;PMS_P1;PMS_P2;Temp;Humidity;BMP_temperature;BMP_pressure;BME280_temperature;BME280_humidity;BME280_pressure;Samples;Min_cycle;Max_cycle;Signal;HPM_P1;HPM_P2
2024/01/07 00:02:01;;;;;;;8.00;7.90;;;2.10;99.90;;;;;;5016258;28;20477;-70
2024/01/07 00:04:28;;;;;;;8.10;8.00;;;2.20;99.90;;;;;;5024947;28;21126;-72
2024/01/07 00:06:54;;;;;;;8.10;8.00;;;2.20;99.90;;;;;;5020773;28;20816;-71
2024/01/07 00:09:21;;;;;;;8.90;8.80;;;2.20;99.90;;;;;;5021009;28;20457;-70
2024/01/07 00:11:49;;;;;;;8.30;8.20;;;2.20;99.90;;;;;;5017085;28;20493;-69
2024/01/07 00:14:16;;;;;;;7.60;7.50;;;2.20;99.90;;;;;;5019007;28;20466;-71
2024/01/07 00:16:43;;;;;;;7.70;7.60;;;2.10;99.90;;;;;;5017352;28;20559;-72
2024/01/07 00:19:12;;;;;;;7.60;7.50;;;2.00;99.90;;;;;;5024184;28;20822;-71
2024/01/07 00:21:38;;;;;;;7.27;7.17;;;2.10;99.90;;;;;;5021328;28;20474;-70
2024/01/07 00:24:06;;;;;;;7.57;7.47;;;2.10;99.90;;;;;;5025400;28;20978;-70
2024/01/07 00:26:33;;;;;;;6.83;6.73;;;2.10;99.90;;;;;;5023347;28;20458;-70
2024/01/07 00:29:00;;;;;;;7.70;7.60;;;2.10;99.90;;;;;;5013882;28;20487;-70
2024/01/07 00:31:27;;;;;;;8.13;8.03;;;2.20;99.90;;;;;;5017628;28;20454;-72
2024/01/07 00:33:53;;;;;;;8.70;8.60;;;2.20;99.90;;;;;;5026857;28;20465;-70
2024/01/07 00:36:22;;;;;;;8.40;8.30;;;2.20;99.90;;;;;;5030791;28;20470;-70
2024/01/07 00:38:48;;;;;;;8.80;8.70;;;2.30;99.90;;;;;;5023085;28;20557;-72
2024/01/07 00:41:15;;;;;;;9.00;8.90;;;2.30;99.90;;;;;;5015850;28;20878;-72
2024/01/07 00:43:42;;;;;;;7.90;7.80;;;2.30;99.90;;;;;;5018905;28;20495;-71
2024/01/07 00:46:10;;;;;;;8.00;7.90;;;2.30;99.90;;;;;;5035053;28;20478;-71
2024/01/07 00:48:36;;;;;;;8.80;8.70;;;2.30;99.90;;;;;;5017629;28;20462;-71
2024/01/07 00:51:06;;;;;;;7.87;7.77;;;2.40;99.90;;;;;;5017464;28;20472;-71
2024/01/07 00:53:34;;;;;;;8.40;8.30;;;2.30;99.90;;;;;;5019797;28;20673;-71
2024/01/07 00:56:01;;;;;;;8.40;8.30;;;2.30;99.90;;;;;;5024313;28;20470;-72
2024/01/07 00:58:28;;;;;;;8.40;8.30;;;2.40;99.90;;;;;;5021830;28;20572;-71
2024/01/07 01:00:55;;;;;;;9.00;8.90;;;2.40;99.90;;;;;;5015535;28;20470;-72
2024/01/07 01:03:22;;;;;;;7.93;7.83;;;2.40;99.90;;;;;;5024400;28;20489;-70
2024/01/07 01:05:49;;;;;;;7.77;7.67;;;2.40;99.90;;;;;;5023507;28;20458;-72
2024/01/07 01:08:17;;;;;;;8.30;8.20;;;2.30;99.90;;;;;;5024902;28;20462;-72
2024/01/07 01:10:45;;;;;;;7.27;7.17;;;2.30;99.90;;;;;;5013399;28;20502;-72
2024/01/07 01:13:12;;;;;;;7.90;7.80;;;2.30;99.90;;;;;;5015435;28;20467;-72
2024/01/07 01:15:39;;;;;;;7.50;7.40;;;2.30;99.90;;;;;;5025073;28;20462;-70
2024/01/07 01:18:06;;;;;;;8.00;7.90;;;2.20;99.90;;;;;;5016616;28;20503;-72
2024/01/07 01:20:33;;;;;;;7.37;7.27;;;2.20;99.90;;;;;;5024224;28;20472;-70
2024/01/07 01:23:00;;;;;;;7.40;7.30;;;2.20;99.90;;;;;;5024996;28;20518;-72
2024/01/07 01:25:27;;;;;;;7.53;7.43;;;2.20;99.90;;;;;;5012321;28;20489;-70
2024/01/07 01:27:56;;;;;;;6.57;6.47;;;2.30;99.90;;;;;;5022584;28;20449;-70
2024/01/07 01:30:23;;;;;;;7.03;6.93;;;2.20;99.90;;;;;;5025014;28;20487;-69
2024/01/07 01:32:50;;;;;;;6.20;6.10;;;2.20;99.90;;;;;;5029137;28;20464;-72
2024/01/07 01:35:17;;;;;;;6.30;6.20;;;2.20;99.90;;;;;;5014803;28;20476;-72
2024/01/07 01:37:44;;;;;;;6.13;6.03;;;2.20;99.90;;;;;;5014114;28;20501;-72
2024/01/07 01:40:12;;;;;;;6.30;6.20;;;2.20;99.90;;;;;;5026911;28;20461;-70
2024/01/07 01:42:38;;;;;;;6.70;6.60;;;2.20;99.90;;;;;;5012077;28;20491;-71
2024/01/07 01:45:08;;;;;;;6.70;6.60;;;2.20;99.90;;;;;;5024054;28;20461;-71
2024/01/07 01:47:34;;;;;;;6.80;6.70;;;2.30;99.90;;;;;;5035227;28;20455;-71
2024/01/07 01:50:02;;;;;;;6.60;6.50;;;2.30;99.90;;;;;;5017005;28;20962;-72
2024/01/07 01:52:28;;;;;;;6.30;6.20;;;2.30;99.90;;;;;;5024821;28;20947;-71
2024/01/07 01:54:55;;;;;;;6.00;5.90;;;2.30;99.90;;;;;;5017730;28;20592;-70
2024/01/07 01:57:25;;;;;;;6.27;6.17;;;2.30;99.90;;;;;;5018903;28;20954;-70
2024/01/07 01:59:53;;;;;;;7.30;7.20;;;2.30;99.90;;;;;;5021338;28;20464;-70
2024/01/07 02:02:22;;;;;;;7.30;7.20;;;2.30;99.90;;;;;;5022798;28;20481;-72
2024/01/07 02:04:49;;;;;;;6.90;6.80;;;2.40;99.90;;;;;;5027870;28;20458;-71
2024/01/07 02:07:16;;;;;;;6.80;6.70;;;2.30;99.90;;;;;;5031251;28;20472;-70
2024/01/07 02:09:42;;;;;;;6.13;6.03;;;2.30;99.90;;;;;;5027324;28;20449;-70
2024/01/07 02:12:11;;;;;;;6.13;6.03;;;2.30;99.90;;;;;;5021934;28;20457;-70
2024/01/07 02:14:39;;;;;;;6.20;6.10;;;2.30;99.90;;;;;;5018079;28;20607;-71
2024/01/07 02:17:06;;;;;;;6.20;6.10;;;2.30;99.90;;;;;;5024479;28;20467;-71
2024/01/07 02:19:35;;;;;;;5.90;5.80;;;2.20;99.90;;;;;;5018058;28;20467;-72
2024/01/07 02:22:02;;;;;;;5.67;5.57;;;2.30;99.90;;;;;;5029907;28;20496;-70
2024/01/07 02:24:32;;;;;;;5.80;5.70;;;2.30;99.90;;;;;;5018753;28;20464;-71
2024/01/07 02:27:02;;;;;;;5.17;5.10;;;2.20;99.90;;;;;;5031093;28;20489;-71
2024/01/07 02:29:28;;;;;;;5.97;5.87;;;2.20;99.90;;;;;;5023243;28;20910;-71
2024/01/07 02:31:56;;;;;;;5.90;5.80;;;2.20;99.90;;;;;;5020931;28;20465;-72
2024/01/07 02:34:24;;;;;;;5.77;5.67;;;2.30;99.90;;;;;;5023491;28;20822;-72
2024/01/07 02:36:51;;;;;;;6.20;6.10;;;2.30;99.90;;;;;;5023434;28;20470;-70
2024/01/07 02:39:20;;;;;;;5.83;5.73;;;2.30;99.90;;;;;;5019568;28;20472;-70
2024/01/07 02:41:48;;;;;;;6.60;6.50;;;2.30;99.90;;;;;;5027512;28;20499;-71
2024/01/07 02:44:16;;;;;;;6.80;6.70;;;2.40;99.90;;;;;;5012474;28;20965;-71
2024/01/07 02:46:43;;;;;;;6.90;6.80;;;2.40;99.90;;;;;;5034399;28;20466;-70
2024/01/07 02:49:10;;;;;;;6.70;6.60;;;2.50;99.90;;;;;;5020436;28;20512;-70
2024/01/07 02:51:37;;;;;;;6.60;6.50;;;2.40;99.90;;;;;;5020434;28;20469;-71
2024/01/07 02:54:04;;;;;;;7.40;7.30;;;2.40;99.90;;;;;;5029796;28;21062;-71
2024/01/07 02:56:30;;;;;;;7.20;7.10;;;2.40;99.90;;;;;;5043046;28;20497;-69
2024/01/07 02:58:59;;;;;;;7.20;7.10;;;2.50;99.90;;;;;;5018887;28;20477;-71
2024/01/07 03:01:26;;;;;;;7.00;6.90;;;2.50;99.90;;;;;;5026884;28;20458;-69
2024/01/07 03:03:53;;;;;;;6.30;6.20;;;2.50;99.90;;;;;;5021879;28;20585;-70
2024/01/07 03:06:19;;;;;;;5.60;5.50;;;2.40;99.90;;;;;;5028513;28;20484;-71
2024/01/07 03:08:48;;;;;;;5.70;5.60;;;2.30;99.90;;;;;;5022646;28;20465;-71
2024/01/07 03:11:15;;;;;;;5.00;5.00;;;2.40;99.90;;;;;;5029143;28;20461;-72
2024/01/07 03:13:41;;;;;;;5.70;5.60;;;2.40;99.90;;;;;;5018383;28;20473;-72
2024/01/07 03:16:20;;;;;;;5.30;5.20;;;2.40;99.90;;;;;;5025431;28;21032;-72
2024/01/07 03:18:47;;;;;;;5.47;5.37;;;2.40;99.90;;;;;;5016926;28;21033;-70
2024/01/07 03:21:19;;;;;;;5.00;5.00;;;2.40;99.90;;;;;;5018759;28;20473;-69
2024/01/07 03:23:46;;;;;;;4.77;4.77;;;2.40;99.90;;;;;;5022899;28;20759;-71
2024/01/07 03:26:14;;;;;;;5.00;5.00;;;2.30;99.90;;;;;;5023301;28;20488;-70
2024/01/07 03:28:41;;;;;;;5.00;5.00;;;2.30;99.90;;;;;;5019257;28;20469;-71
2024/01/07 03:31:11;;;;;;;4.47;4.47;;;2.40;99.90;;;;;;5019781;28;20473;-70
2024/01/07 03:33:40;;;;;;;5.30;5.20;;;2.40;99.90;;;;;;5029461;28;20870;-71
2024/01/07 03:36:10;;;;;;;5.20;5.10;;;2.40;99.90;;;;;;5032348;28;20467;-69
2024/01/07 03:38:37;;;;;;;4.70;4.70;;;2.40;99.90;;;;;;5019718;28;20802;-70
2024/01/07 03:41:04;;;;;;;4.73;4.73;;;2.50;99.90;;;;;;5020374;28;20494;-70
2024/01/07 03:43:31;;;;;;;4.67;4.67;;;2.40;99.90;;;;;;5023924;28;21023;-70
2024/01/07 03:45:59;;;;;;;4.43;4.43;;;2.50;99.90;;;;;;5019612;28;20469;-71
2024/01/07 03:48:27;;;;;;;5.03;5.03;;;2.50;99.90;;;;;;5028683;28;20581;-71
2024/01/07 03:50:54;;;;;;;4.60;4.60;;;2.50;99.90;;;;;;5022368;28;20461;-70
2024/01/07 03:53:21;;;;;;;4.50;4.50;;;2.50;99.90;;;;;;5022025;28;20493;-70
2024/01/07 03:55:48;;;;;;;4.37;4.37;;;2.30;99.90;;;;;;5032835;28;20784;-69
2024/01/07 03:58:16;;;;;;;4.30;4.30;;;2.30;99.90;;;;;;5021145;28;20476;-70
2024/01/07 04:00:43;;;;;;;5.40;5.30;;;2.40;99.90;;;;;;5026243;28;20463;-69
2024/01/07 04:03:10;;;;;;;4.90;4.90;;;2.40;99.90;;;;;;5021715;28;20482;-71
2024/01/07 04:05:38;;;;;;;5.10;5.07;;;2.50;99.90;;;;;;5017452;28;21135;-71
2024/01/07 04:08:06;;;;;;;4.87;4.87;;;2.50;99.90;;;;;;5021204;28;20463;-71
2024/01/07 04:10:33;;;;;;;5.50;5.40;;;2.50;99.90;;;;;;5022631;28;20469;-69
2024/01/07 04:13:00;;;;;;;5.40;5.30;;;2.60;99.90;;;;;;5025585;28;20454;-70
2024/01/07 04:15:27;;;;;;;4.90;4.90;;;2.50;99.90;;;;;;5024826;28;20473;-69
2024/01/07 04:17:55;;;;;;;4.60;4.60;;;2.50;99.90;;;;;;5017274;28;20467;-70
2024/01/07 04:20:22;;;;;;;4.73;4.73;;;2.50;99.90;;;;;;5022116;28;20474;-69
2024/01/07 04:22:50;;;;;;;4.60;4.60;;;2.40;99.90;;;;;;5027033;28;20458;-70
2024/01/07 04:25:17;;;;;;;4.43;4.43;;;2.50;99.90;;;;;;5011083;28;20809;-70
2024/01/07 04:27:46;;;;;;;4.33;4.33;;;2.50;99.90;;;;;;5023634;28;20459;-71
2024/01/07 04:30:14;;;;;;;4.43;4.43;;;2.50;99.90;;;;;;5021470;28;20526;-70
2024/01/07 04:32:41;;;;;;;4.03;4.03;;;2.40;99.90;;;;;;5014044;28;20462;-71
2024/01/07 04:35:09;;;;;;;4.57;4.57;;;2.40;99.90;;;;;;5021062;28;20489;-70
2024/01/07 04:37:36;;;;;;;4.40;4.40;;;2.50;99.90;;;;;;5018761;28;20474;-72
2024/01/07 04:40:05;;;;;;;4.53;4.53;;;2.40;99.90;;;;;;5022868;28;20494;-71
2024/01/07 04:42:33;;;;;;;4.60;4.60;;;2.50;99.90;;;;;;5023398;28;20493;-70
2024/01/07 04:45:00;;;;;;;4.50;4.50;;;2.40;99.90;;;;;;5031455;28;20485;-70
2024/01/07 04:47:29;;;;;;;3.97;3.97;;;2.40;99.90;;;;;;5032042;28;20933;-71
2024/01/07 04:49:58;;;;;;;4.30;4.30;;;2.40;99.90;;;;;;5017107;28;20816;-69
2024/01/07 04:52:26;;;;;;;4.00;4.00;;;2.40;99.90;;;;;;5021157;28;20807;-69
2024/01/07 04:54:54;;;;;;;4.00;4.00;;;2.40;99.90;;;;;;5022553;28;20517;-70
2024/01/07 04:57:23;;;;;;;3.70;3.70;;;2.30;99.90;;;;;;5028613;28;20816;-70
2024/01/07 04:59:51;;;;;;;3.63;3.63;;;2.20;99.90;;;;;;5023165;28;20971;-70
2024/01/07 05:02:18;;;;;;;3.93;3.93;;;2.30;99.90;;;;;;5022729;28;20486;-69
2024/01/07 05:04:44;;;;;;;3.83;3.83;;;2.40;99.90;;;;;;5026037;28;20494;-72
2024/01/07 05:07:11;;;;;;;3.90;3.90;;;2.40;99.90;;;;;;5009570;28;20467;-71
2024/01/07 05:09:40;;;;;;;3.70;3.70;;;2.40;99.90;;;;;;5015736;28;20458;-71
2024/01/07 05:12:07;;;;;;;3.80;3.80;;;2.30;99.90;;;;;;5025966;28;20960;-72
2024/01/07 05:14:37;;;;;;;4.00;4.00;;;2.30;99.90;;;;;;5026431;28;20464;-71
2024/01/07 05:17:05;;;;;;;4.43;4.43;;;2.40;99.90;;;;;;5016092;28;20450;-69
2024/01/07 05:19:31;;;;;;;5.27;5.17;;;2.40;99.90;;;;;;5026593;28;20493;-70
2024/01/07 05:22:00;;;;;;;5.63;5.53;;;2.30;99.90;;;;;;5012575;28;21292;-71
2024/01/07 05:24:28;;;;;;;6.50;6.40;;;2.30;99.90;;;;;;5023517;28;20611;-71
2024/01/07 05:26:55;;;;;;;7.40;7.30;;;2.20;99.90;;;;;;5025081;28;20504;-69
2024/01/07 05:29:22;;;;;;;8.87;8.77;;;2.20;99.90;;;;;;5018123;28;20486;-68
2024/01/07 05:31:50;;;;;;;10.00;9.80;;;2.30;99.90;;;;;;5028347;28;20455;-71
2024/01/07 05:34:17;;;;;;;10.40;10.20;;;2.20;99.90;;;;;;5015466;28;20818;-70
2024/01/07 05:36:44;;;;;;;11.60;11.30;;;2.30;99.90;;;;;;5013530;28;20491;-69
2024/01/07 05:39:11;;;;;;;11.50;11.20;;;2.40;99.90;;;;;;5016522;28;20668;-69
2024/01/07 05:41:38;;;;;;;12.10;11.80;;;2.20;99.90;;;;;;5026403;28;20490;-70
2024/01/07 05:44:07;;;;;;;11.53;11.23;;;2.20;99.90;;;;;;5015685;28;20571;-71
2024/01/07 05:46:34;;;;;;;12.10;11.80;;;2.10;99.90;;;;;;5024757;28;20846;-70
2024/01/07 05:49:03;;;;;;;11.87;11.57;;;2.10;99.90;;;;;;5010646;28;20477;-69
2024/01/07 05:51:30;;;;;;;12.73;12.43;;;2.10;99.90;;;;;;5021245;28;20485;-69
2024/01/07 05:53:57;;;;;;;13.10;12.80;;;2.20;99.90;;;;;;5015307;28;20470;-70
2024/01/07 05:56:25;;;;;;;13.00;12.70;;;2.10;99.90;;;;;;5024682;28;20811;-69
2024/01/07 05:58:51;;;;;;;12.70;12.40;;;2.00;99.90;;;;;;5020306;28;20465;-70
2024/01/07 06:01:20;;;;;;;12.67;12.37;;;1.90;99.90;;;;;;5025177;28;20549;-71
2024/01/07 06:03:48;;;;;;;13.60;13.20;;;1.90;99.90;;;;;;5013598;28;21058;-71
2024/01/07 06:06:17;;;;;;;13.83;13.43;;;1.90;99.90;;;;;;5015934;28;20465;-70
2024/01/07 06:08:44;;;;;;;13.47;13.07;;;1.90;99.90;;;;;;5025610;28;20476;-71
2024/01/07 06:11:15;;;;;;;13.17;12.87;;;1.90;99.90;;;;;;5021431;28;20469;-69
2024/01/07 06:13:42;;;;;;;13.17;12.87;;;1.90;99.90;;;;;;5026820;28;20834;-70
2024/01/07 06:16:10;;;;;;;13.07;12.77;;;1.90;99.90;;;;;;5022128;28;20472;-70
2024/01/07 06:18:37;;;;;;;13.20;12.90;;;1.90;99.90;;;;;;5012337;28;20469;-69
2024/01/07 06:21:04;;;;;;;13.53;13.13;;;1.90;99.90;;;;;;5020012;28;20500;-69
2024/01/07 06:23:34;;;;;;;13.67;13.27;;;1.90;99.90;;;;;;5016051;28;20460;-69
2024/01/07 06:26:03;;;;;;;14.30;13.90;;;1.90;99.90;;;;;;5019564;28;20457;-68
2024/01/07 06:28:31;;;;;;;13.37;13.00;;;1.70;99.90;;;;;;5023090;28;20819;-69
2024/01/07 06:30:58;;;;;;;14.10;13.70;;;1.80;99.90;;;;;;5024759;28;20555;-71
2024/01/07 06:33:26;;;;;;;13.13;12.83;;;1.80;99.90;;;;;;5013072;28;20607;-71
2024/01/07 06:35:53;;;;;;;13.97;13.57;;;1.80;99.90;;;;;;5016800;28;20454;-71
2024/01/07 06:38:20;;;;;;;13.50;13.13;;;1.80;99.90;;;;;;5022913;28;20466;-70
2024/01/07 06:40:48;;;;;;;13.47;13.10;;;1.70;99.90;;;;;;5015529;28;20469;-71
2024/01/07 06:43:15;;;;;;;13.20;12.90;;;1.60;99.90;;;;;;5013340;28;20468;-70
2024/01/07 06:45:43;;;;;;;13.80;13.40;;;1.50;99.90;;;;;;5022427;28;20491;-70
2024/01/07 06:48:10;;;;;;;14.03;13.63;;;1.60;99.90;;;;;;5026835;28;20542;-71
2024/01/07 06:50:37;;;;;;;13.70;13.30;;;1.60;99.90;;;;;;5020411;28;20903;-70
2024/01/07 06:53:06;;;;;;;13.23;12.90;;;1.60;99.90;;;;;;5013308;28;20799;-70
2024/01/07 06:55:33;;;;;;;12.53;12.23;;;1.60;99.90;;;;;;5033939;28;20452;-70
2024/01/07 06:58:01;;;;;;;13.80;13.40;;;1.70;99.90;;;;;;5025049;28;20462;-72
2024/01/07 07:00:28;;;;;;;14.30;13.90;;;1.80;99.90;;;;;;5020109;28;20466;-70
2024/01/07 07:02:55;;;;;;;13.00;12.70;;;1.80;99.90;;;;;;5027631;28;20491;-71
2024/01/07 07:05:23;;;;;;;13.50;13.10;;;1.70;99.90;;;;;;5020885;28;20877;-70
2024/01/07 07:07:50;;;;;;;13.50;13.10;;;1.70;99.90;;;;;;5022955;28;20459;-72
2024/01/07 07:10:17;;;;;;;12.60;12.30;;;1.70;99.90;;;;;;5016817;28;20458;-71
2024/01/07 07:12:44;;;;;;;12.70;12.40;;;1.70;99.90;;;;;;5027697;28;20807;-70
2024/01/07 07:15:12;;;;;;;12.50;12.20;;;1.70;99.90;;;;;;5026248;28;20455;-71
2024/01/07 07:17:39;;;;;;;11.93;11.63;;;1.70;99.90;;;;;;5013540;28;20469;-71
2024/01/07 07:20:07;;;;;;;11.17;10.97;;;1.70;99.90;;;;;;5027858;28;20468;-72
2024/01/07 07:22:35;;;;;;;11.30;11.10;;;1.60;99.90;;;;;;5027533;28;20474;-70
2024/01/07 07:25:02;;;;;;;10.30;10.10;;;1.60;99.90;;;;;;5013729;28;20928;-71
2024/01/07 07:27:29;;;;;;;9.67;9.47;;;1.60;99.90;;;;;;5016263;28;20461;-69
2024/01/07 07:29:56;;;;;;;9.40;9.20;;;1.50;99.90;;;;;;5020060;28;20504;-71
2024/01/07 07:32:24;;;;;;;8.90;8.80;;;1.40;99.90;;;;;;5023871;28;20466;-70
2024/01/07 07:34:52;;;;;;;8.10;8.00;;;1.40;99.90;;;;;;5019282;28;20473;-70
2024/01/07 07:37:18;;;;;;;7.90;7.80;;;1.30;99.90;;;;;;5030737;28;20453;-68
2024/01/07 07:39:46;;;;;;;7.40;7.30;;;1.30;99.90;;;;;;5019596;28;20470;-71
2024/01/07 07:42:13;;;;;;;6.77;6.67;;;1.40;99.90;;;;;;5020942;28;20532;-72
2024/01/07 07:44:40;;;;;;;6.63;6.53;;;1.30;99.90;;;;;;5021897;28;20481;-70
2024/01/07 07:47:11;;;;;;;6.73;6.63;;;1.30;99.90;;;;;;5022773;28;20485;-69
2024/01/07 07:49:40;;;;;;;6.20;6.10;;;1.30;99.90;;;;;;5017557;28;20799;-70
2024/01/07 07:52:08;;;;;;;6.50;6.40;;;1.30;99.90;;;;;;5028424;28;20783;-71
2024/01/07 07:54:35;;;;;;;6.40;6.30;;;1.40;99.90;;;;;;5020393;28;20462;-71
2024/01/07 07:57:02;;;;;;;5.97;5.87;;;1.30;99.90;;;;;;5028755;28;20457;-70
2024/01/07 07:59:29;;;;;;;6.63;6.53;;;1.40;99.90;;;;;;5022056;28;20464;-71
2024/01/07 08:01:56;;;;;;;6.60;6.50;;;1.40;99.90;;;;;;5016306;28;20458;-70
2024/01/07 08:04:23;;;;;;;6.70;6.60;;;1.50;99.90;;;;;;5014616;28;20490;-70
2024/01/07 08:06:52;;;;;;;5.70;5.60;;;1.50;99.90;;;;;;5019599;28;20802;-69
2024/01/07 08:09:20;;;;;;;5.40;5.30;;;1.50;99.90;;;;;;5012783;28;20980;-71
2024/01/07 08:11:47;;;;;;;4.80;4.80;;;1.40;99.90;;;;;;5023164;28;20471;-70
2024/01/07 08:14:14;;;;;;;4.33;4.33;;;1.40;99.90;;;;;;5020340;28;20462;-70
2024/01/07 08:16:42;;;;;;;4.80;4.80;;;1.30;99.90;;;;;;5020698;28;20813;-71
2024/01/07 08:19:09;;;;;;;4.40;4.40;;;1.40;99.90;;;;;;5023184;28;20552;-70
2024/01/07 08:21:36;;;;;;;4.70;4.70;;;1.40;99.90;;;;;;5024473;28;20469;-72
2024/01/07 08:24:05;;;;;;;5.30;5.20;;;1.40;99.90;;;;;;5017352;28;20496;-70
2024/01/07 08:26:32;;;;;;;5.27;5.17;;;1.40;99.90;;;;;;5033980;28;20971;-70
2024/01/07 08:28:59;;;;;;;5.40;5.30;;;1.30;99.90;;;;;;5013557;28;20496;-70
2024/01/07 08:31:26;;;;;;;5.60;5.50;;;1.40;99.90;;;;;;5023197;28;20504;-70
2024/01/07 08:33:53;;;;;;;5.23;5.13;;;1.50;99.90;;;;;;5024163;28;20849;-70
2024/01/07 08:36:21;;;;;;;5.20;5.10;;;1.50;99.90;;;;;;5032404;28;20543;-71
2024/01/07 08:38:48;;;;;;;5.20;5.10;;;1.40;99.90;;;;;;5017795;28;20471;-71
2024/01/07 08:41:17;;;;;;;5.27;5.17;;;1.40;99.90;;;;;;5014585;28;20515;-71
2024/01/07 08:43:45;;;;;;;5.13;5.03;;;1.50;99.90;;;;;;5027675;28;20968;-71
2024/01/07 08:46:13;;;;;;;6.00;5.90;;;1.40;99.90;;;;;;5021977;28;20501;-71
2024/01/07 08:48:40;;;;;;;5.90;5.80;;;1.50;99.90;;;;;;5025696;28;20464;-71
2024/01/07 08:51:07;;;;;;;5.53;5.43;;;1.50;99.90;;;;;;5015515;28;20853;-72
2024/01/07 08:53:34;;;;;;;6.20;6.10;;;1.40;99.90;;;;;;5020061;28;20457;-71
2024/01/07 08:56:01;;;;;;;6.77;6.67;;;1.50;99.90;;;;;;5011601;28;20461;-69
2024/01/07 08:58:30;;;;;;;6.50;6.40;;;1.40;99.90;;;;;;5016588;28;20463;-71
2024/01/07 09:00:56;;;;;;;6.80;6.70;;;1.40;99.90;;;;;;5010391;28;20462;-71
2024/01/07 09:03:23;;;;;;;6.60;6.50;;;1.30;99.90;;;;;;5012552;28;20462;-70
2024/01/07 09:05:50;;;;;;;6.90;6.80;;;1.20;99.90;;;;;;5013819;28;21008;-70
2024/01/07 09:08:17;;;;;;;6.90;6.80;;;1.20;99.90;;;;;;5008939;28;20462;-69
2024/01/07 09:10:44;;;;;;;7.00;6.90;;;1.20;99.90;;;;;;5016413;28;20468;-69
2024/01/07 09:13:10;;;;;;;7.53;7.43;;;1.20;99.90;;;;;;5015943;28;20936;-70
2024/01/07 09:15:39;;;;;;;8.50;8.40;;;1.20;99.90;;;;;;5008162;28;20477;-70
2024/01/07 09:18:07;;;;;;;8.80;8.70;;;1.10;99.90;;;;;;5013225;28;20523;-70
2024/01/07 09:20:34;;;;;;;8.73;8.63;;;1.10;99.90;;;;;;5009922;28;20458;-70
2024/01/07 09:23:01;;;;;;;9.10;8.90;;;1.10;99.90;;;;;;5015385;28;20555;-70
2024/01/07 09:25:29;;;;;;;9.90;9.70;;;1.20;99.90;;;;;;5015144;28;20631;-70
2024/01/07 09:27:55;;;;;;;9.90;9.70;;;1.10;99.90;;;;;;5015179;28;20822;-72
2024/01/07 09:30:22;;;;;;;9.80;9.60;;;1.00;99.90;;;;;;5013383;28;20966;-70
2024/01/07 09:32:51;;;;;;;9.97;9.77;;;1.10;99.90;;;;;;5013533;28;20949;-70
2024/01/07 09:35:18;;;;;;;9.90;9.70;;;1.20;99.90;;;;;;5013264;28;20474;-69
2024/01/07 09:37:45;;;;;;;10.07;9.87;;;1.20;99.90;;;;;;5008560;28;20461;-70
2024/01/07 09:40:13;;;;;;;9.83;9.63;;;1.20;99.90;;;;;;5010297;28;20462;-69
2024/01/07 09:42:40;;;;;;;9.60;9.40;;;1.20;99.90;;;;;;5013670;28;20485;-69
2024/01/07 09:45:08;;;;;;;9.47;9.27;;;1.20;99.90;;;;;;5016876;28;20490;-69
2024/01/07 09:47:36;;;;;;;9.10;8.90;;;1.10;99.90;;;;;;5017769;28;20510;-70
2024/01/07 09:50:05;;;;;;;8.63;8.53;;;1.20;99.90;;;;;;5013790;28;20469;-70
2024/01/07 09:52:33;;;;;;;8.10;8.00;;;1.20;99.90;;;;;;5017295;28;20464;-70
2024/01/07 09:55:03;;;;;;;8.50;8.40;;;1.30;99.90;;;;;;5009736;28;20929;-70
2024/01/07 09:57:31;;;;;;;8.33;8.23;;;1.30;99.90;;;;;;5005604;28;20458;-71
2024/01/07 09:59:57;;;;;;;7.87;7.77;;;1.30;99.90;;;;;;5013544;28;20466;-69
2024/01/07 10:02:24;;;;;;;8.00;7.90;;;1.30;99.90;;;;;;5012941;28;20473;-70
2024/01/07 10:04:51;;;;;;;7.67;7.57;;;1.20;99.90;;;;;;5013830;28;20834;-72
2024/01/07 10:07:19;;;;;;;7.67;7.57;;;1.10;99.90;;;;;;5005251;28;20845;-70
2024/01/07 10:09:46;;;;;;;7.83;7.73;;;1.10;99.90;;;;;;5006181;28;20470;-71
2024/01/07 10:12:13;;;;;;;7.87;7.77;;;1.10;99.90;;;;;;5013457;28;20818;-70
2024/01/07 10:14:41;;;;;;;8.10;8.00;;;1.10;99.90;;;;;;5012795;28;21097;-72
2024/01/07 10:17:16;;;;;;;8.27;8.17;;;1.20;99.90;;;;;;5004251;28;21331;-69
2024/01/07 10:19:45;;;;;;;8.80;8.70;;;1.30;99.90;;;;;;5013290;28;20590;-70
2024/01/07 10:22:14;;;;;;;9.10;8.90;;;1.30;99.90;;;;;;5009197;28;20468;-70
2024/01/07 10:24:43;;;;;;;8.83;8.67;;;1.40;99.90;;;;;;5010086;28;20477;-70
2024/01/07 10:27:10;;;;;;;9.13;8.93;;;1.30;99.90;;;;;;5021178;28;20469;-69
2024/01/07 10:29:37;;;;;;;8.63;8.53;;;1.30;99.90;;;;;;5017102;28;20516;-72
2024/01/07 10:32:06;;;;;;;8.50;8.40;;;1.10;99.90;;;;;;5013239;28;20623;-71
2024/01/07 10:34:34;;;;;;;8.50;8.40;;;1.10;99.90;;;;;;5012761;28;20465;-72
2024/01/07 10:37:02;;;;;;;8.70;8.60;;;1.10;99.90;;;;;;5019906;28;20580;-71
2024/01/07 10:39:30;;;;;;;9.00;8.80;;;1.00;99.90;;;;;;5018833;28;20500;-69
2024/01/07 10:41:58;;;;;;;9.20;9.00;;;1.10;99.90;;;;;;5014986;28;20481;-71
2024/01/07 10:44:27;;;;;;;9.10;8.90;;;1.20;99.90;;;;;;5009205;28;21259;-70
2024/01/07 10:46:56;;;;;;;9.30;9.10;;;1.10;99.90;;;;;;5020145;28;20543;-69
2024/01/07 10:49:25;;;;;;;9.07;8.87;;;1.10;99.90;;;;;;5014511;28;20568;-72
2024/01/07 10:52:03;;;;;;;9.40;9.20;;;1.10;99.90;;;;;;5018295;28;21015;-73
2024/01/07 10:54:30;;;;;;;9.50;9.30;;;1.10;99.90;;;;;;5012491;28;20555;-72
2024/01/07 10:57:01;;;;;;;9.37;9.17;;;1.20;99.90;;;;;;5007089;28;20475;-71
2024/01/07 10:59:29;;;;;;;9.60;9.40;;;1.20;99.90;;;;;;5016423;28;20465;-72
2024/01/07 11:01:56;;;;;;;9.30;9.10;;;1.20;99.90;;;;;;5017676;28;20466;-71
2024/01/07 11:04:30;;;;;;;10.20;10.00;;;1.30;99.90;;;;;;5016655;28;20933;-71
2024/01/07 11:07:03;;;;;;;10.00;9.80;;;1.30;99.90;;;;;;5021251;28;20850;-72
2024/01/07 11:09:37;;;;;;;10.23;10.03;;;1.20;99.90;;;;;;5018455;28;20477;-70
2024/01/07 11:12:07;;;;;;;10.10;9.90;;;1.20;99.90;;;;;;5016137;28;20474;-72
2024/01/07 11:14:39;;;;;;;10.30;10.10;;;1.20;99.90;;;;;;5014276;28;20845;-72
2024/01/07 11:17:06;;;;;;;10.00;9.80;;;1.30;99.90;;;;;;5009184;28;20466;-70
2024/01/07 11:19:33;;;;;;;10.03;9.83;;;1.20;99.90;;;;;;5015408;28;20471;-71
2024/01/07 11:22:27;;;;;;;10.57;10.37;;;1.30;99.90;;;;;;5014029;28;20476;-70
2024/01/07 11:24:55;;;;;;;10.40;10.20;;;1.40;99.90;;;;;;5016891;28;21136;-72
2024/01/07 11:27:24;;;;;;;10.30;10.10;;;1.50;99.90;;;;;;5010527;28;20944;-72
2024/01/07 11:29:56;;;;;;;10.40;10.20;;;1.60;99.90;;;;;;5009118;28;20485;-72
2024/01/07 11:32:25;;;;;;;10.20;10.00;;;1.40;99.90;;;;;;5017344;28;20465;-69
2024/01/07 11:34:52;;;;;;;10.20;10.00;;;1.30;99.90;;;;;;5013116;28;20472;-72
2024/01/07 11:37:19;;;;;;;10.23;10.03;;;1.30;99.90;;;;;;5015963;28;20491;-72
2024/01/07 11:39:47;;;;;;;10.73;10.43;;;1.30;99.90;;;;;;5011470;28;20538;-70
2024/01/07 11:42:15;;;;;;;11.00;10.70;;;1.30;99.90;;;;;;5016538;28;20609;-70
2024/01/07 11:44:49;;;;;;;10.40;10.20;;;1.30;99.90;;;;;;5012572;28;20465;-70
2024/01/07 11:47:17;;;;;;;10.80;10.50;;;1.20;99.90;;;;;;5018484;28;20522;-72
2024/01/07 11:49:43;;;;;;;10.50;10.30;;;1.20;99.90;;;;;;5012204;28;20956;-71
2024/01/07 11:52:11;;;;;;;10.20;10.00;;;1.20;99.90;;;;;;5018563;28;20489;-70
2024/01/07 11:54:39;;;;;;;11.00;10.70;;;1.10;99.90;;;;;;5011683;28;20563;-71
2024/01/07 11:57:06;;;;;;;10.67;10.43;;;1.10;99.90;;;;;;5008653;28;20469;-70
2024/01/07 11:59:34;;;;;;;10.10;9.90;;;1.20;99.90;;;;;;5015382;28;20542;-70
2024/01/07 12:02:04;;;;;;;10.03;9.83;;;1.20;99.90;;;;;;5015436;28;21002;-70
2024/01/07 12:04:31;;;;;;;10.53;10.33;;;1.10;99.90;;;;;;5008447;28;20497;-71
2024/01/07 12:06:58;;;;;;;10.10;9.90;;;1.00;99.90;;;;;;5014201;28;20482;-70
2024/01/07 12:09:25;;;;;;;9.90;9.70;;;0.90;99.90;;;;;;5012787;28;20473;-71
2024/01/07 12:11:53;;;;;;;9.73;9.53;;;1.00;99.90;;;;;;5012898;28;20464;-71
2024/01/07 12:14:20;;;;;;;10.00;9.80;;;1.00;99.90;;;;;;5012522;28;20853;-70
2024/01/07 12:16:47;;;;;;;10.30;10.10;;;1.10;99.90;;;;;;5013282;28;20473;-69
2024/01/07 12:19:15;;;;;;;10.00;9.80;;;1.10;99.90;;;;;;5014258;28;20961;-71
2024/01/07 12:21:42;;;;;;;9.63;9.43;;;1.00;99.90;;;;;;5010570;28;20458;-70
2024/01/07 12:24:09;;;;;;;9.70;9.50;;;0.90;99.90;;;;;;5012476;28;20946;-72
2024/01/07 12:26:37;;;;;;;10.27;10.07;;;1.00;99.90;;;;;;5014920;28;21016;-71
2024/01/07 12:29:04;;;;;;;11.13;10.83;;;1.00;99.90;;;;;;5009017;28;20529;-70
2024/01/07 12:31:33;;;;;;;10.33;10.13;;;1.10;99.90;;;;;;5010004;28;20469;-72
2024/01/07 12:34:00;;;;;;;10.80;10.57;;;1.10;99.90;;;;;;5010347;28;20466;-69
2024/01/07 12:36:30;;;;;;;10.70;10.50;;;1.10;99.90;;;;;;5007600;28;20478;-71
2024/01/07 12:38:57;;;;;;;10.83;10.60;;;1.10;99.90;;;;;;5014332;28;20976;-71
2024/01/07 12:41:25;;;;;;;10.17;9.97;;;1.10;99.90;;;;;;5015374;28;20473;-70
2024/01/07 12:43:51;;;;;;;10.70;10.50;;;1.10;99.90;;;;;;5008901;28;20955;-70
2024/01/07 12:46:18;;;;;;;10.37;10.17;;;1.10;99.90;;;;;;5009479;28;20690;-70
2024/01/07 12:48:46;;;;;;;10.60;10.40;;;1.10;99.90;;;;;;5014190;28;20465;-71
2024/01/07 12:51:13;;;;;;;10.63;10.43;;;1.00;99.90;;;;;;5014769;28;20457;-69
2024/01/07 12:53:41;;;;;;;11.00;10.70;;;1.00;99.90;;;;;;5012694;28;20457;-69